createdAt,value
2023-04-18T00:00:51.430Z,11.07
2023-04-18T00:05:54.332Z,12.17
2023-04-18T00:10:57.236Z,12.77
2023-04-18T00:16:00.145Z,13.08
2023-04-18T00:21:03.875Z,13.29
2023-04-18T00:26:06.763Z,13.41
2023-04-18T00:31:09.704Z,13.48
2023-04-18T00:36:12.672Z,12.95
2023-04-18T00:41:16.766Z,11.10
2023-04-18T00:46:19.784Z,10.60
2023-04-18T00:51:22.934Z,11.77
2023-04-18T00:56:26.129Z,12.26
2023-04-18T01:01:29.380Z,12.58
2023-04-18T01:06:32.965Z,12.75
2023-04-18T01:11:36.277Z,12.97
2023-04-18T01:16:39.195Z,13.15
2023-04-18T01:21:44.070Z,13.29
2023-04-18T01:26:50.116Z,13.42
2023-04-18T01:31:54.045Z,13.21
2023-04-18T01:36:57.083Z,11.47
2023-04-18T01:42:02.281Z,10.05
2023-04-18T01:47:05.624Z,9.74
2023-04-18T01:52:08.837Z,11.12
2023-04-18T01:57:11.732Z,12.26
2023-04-18T02:02:14.806Z,12.89
2023-04-18T02:07:17.758Z,13.33
2023-04-18T02:12:21.161Z,13.59
2023-04-18T02:17:24.294Z,13.86
2023-04-18T02:22:27.383Z,12.91
2023-04-18T02:27:30.448Z,10.92
2023-04-18T02:32:33.424Z,9.67
2023-04-18T02:37:36.512Z,9.82
2023-04-18T02:42:40.061Z,11.28
2023-04-18T02:47:54.669Z,12.05
2023-04-18T02:52:58.733Z,12.54
2023-04-18T02:58:01.660Z,12.84
2023-04-18T03:03:05.857Z,13.03
2023-04-18T03:08:08.896Z,13.15
2023-04-18T03:13:11.733Z,13.32
2023-04-18T03:18:14.901Z,13.43
2023-04-18T03:23:17.799Z,13.46
2023-04-18T03:28:20.800Z,13.00
2023-04-18T03:33:24.220Z,11.13
2023-04-18T03:38:27.224Z,9.80
2023-04-18T03:43:30.125Z,9.59
2023-04-18T03:48:36.437Z,11.09
2023-04-18T03:53:39.275Z,11.90
2023-04-18T03:58:42.224Z,12.39
2023-04-18T04:03:45.361Z,12.75
2023-04-18T04:08:48.550Z,13.29
2023-04-18T04:13:51.453Z,13.83
2023-04-18T04:18:54.368Z,13.34
2023-04-18T04:23:57.692Z,11.58
2023-04-18T04:29:00.569Z,10.49
2023-04-18T04:34:05.105Z,10.67
2023-04-18T04:39:08.931Z,12.79
2023-04-18T04:44:12.502Z,14.03
2023-04-18T04:49:15.659Z,14.17
2023-04-18T04:54:18.568Z,12.70
2023-04-18T04:59:21.474Z,11.64
2023-04-18T05:04:25.625Z,11.90
2023-04-18T05:09:28.913Z,13.62
2023-04-18T05:14:31.823Z,14.58
2023-04-18T05:19:35.405Z,14.47
2023-04-18T05:24:38.451Z,12.82
2023-04-18T05:29:41.567Z,13.27
2023-04-18T05:34:44.662Z,14.67
2023-04-18T05:39:47.568Z,14.67
2023-04-18T05:44:50.732Z,13.24
2023-04-18T05:49:53.896Z,14.19
2023-04-18T05:54:56.810Z,15.55
2023-04-18T06:00:00.244Z,15.43
2023-04-18T06:05:03.674Z,14.13
2023-04-18T06:10:11.202Z,14.61
2023-04-18T06:15:14.053Z,16.40
2023-04-18T06:20:17.059Z,16.72
2023-04-18T06:25:20.914Z,15.73
2023-04-18T06:30:23.785Z,17.08
2023-04-18T06:35:26.829Z,17.10
2023-04-18T06:40:30.096Z,16.80
2023-04-18T06:45:33.352Z,19.45
2023-04-18T06:50:36.418Z,21.29
2023-04-18T06:55:40.960Z,21.33
2023-04-18T07:00:43.932Z,21.60
2023-04-18T07:05:47.083Z,21.98
2023-04-18T07:10:50.005Z,22.71
2023-04-18T07:15:52.984Z,23.38
2023-04-18T07:20:55.904Z,23.90
2023-04-18T07:26:01.750Z,24.25
2023-04-18T07:31:05.009Z,24.70
2023-04-18T07:36:08.435Z,24.96
2023-04-18T07:41:11.720Z,25.43
2023-04-18T07:46:14.757Z,26.01
2023-04-18T07:51:17.737Z,26.73
2023-04-18T07:56:20.577Z,27.14
2023-04-18T08:01:25.000Z,27.72
2023-04-18T08:06:29.065Z,28.25
2023-04-18T08:11:34.487Z,28.79
2023-04-18T08:16:37.902Z,29.37
2023-04-18T08:21:40.776Z,29.57
2023-04-18T08:26:43.682Z,29.92
2023-04-18T08:31:46.741Z,30.01
2023-04-18T08:36:51.332Z,29.12
2023-04-18T08:41:59.635Z,27.80
2023-04-18T08:47:03.180Z,27.19
2023-04-18T08:52:14.590Z,27.77
2023-04-18T08:57:23.873Z,28.84
2023-04-18T09:02:45.211Z,29.22
2023-04-18T09:07:50.012Z,30.11
2023-04-18T09:12:53.768Z,31.08
2023-04-18T09:17:59.597Z,31.68
2023-04-18T09:23:04.429Z,32.10
2023-04-18T09:28:30.043Z,32.06
2023-04-18T09:33:33.127Z,31.96
2023-04-18T09:38:41.294Z,31.93
2023-04-18T09:43:47.533Z,31.69
2023-04-18T09:48:50.444Z,31.53
2023-04-18T09:53:53.859Z,32.08
2023-04-18T09:59:07.408Z,32.76
2023-04-18T10:04:12.528Z,33.29
2023-04-18T10:09:16.587Z,33.50
2023-04-18T10:14:20.315Z,34.03
2023-04-18T10:19:24.881Z,34.90
2023-04-18T10:24:56.389Z,35.07
2023-04-18T10:29:59.337Z,35.54
2023-04-18T10:35:02.546Z,36.01
2023-04-18T10:40:07.797Z,36.58
2023-04-18T10:45:20.558Z,36.63
2023-04-18T10:50:23.657Z,34.30
2023-04-18T10:55:30.051Z,31.54
2023-04-18T11:00:33.174Z,29.20
2023-04-18T11:05:36.262Z,27.48
2023-04-18T11:10:39.780Z,26.88
2023-04-18T11:15:42.686Z,29.03
2023-04-18T11:20:50.502Z,30.98
2023-04-18T11:25:56.831Z,32.69
2023-04-18T11:31:03.000Z,33.74
2023-04-18T11:36:07.157Z,34.08
2023-04-18T11:41:14.774Z,31.92
2023-04-18T11:46:17.843Z,31.97
2023-04-18T11:51:38.914Z,31.56
2023-04-18T11:56:48.967Z,28.84
2023-04-18T12:02:15.426Z,26.55
2023-04-18T12:07:32.421Z,24.84
2023-04-18T12:12:36.698Z,24.40
2023-04-18T12:17:39.718Z,24.70
2023-04-18T12:22:45.533Z,25.32
2023-04-18T12:27:49.672Z,24.89
2023-04-18T12:32:57.501Z,24.37
2023-04-18T12:38:01.905Z,23.78
2023-04-18T12:43:04.899Z,23.07
2023-04-18T12:48:08.042Z,22.75
2023-04-18T12:53:10.884Z,22.73
2023-04-18T12:58:18.835Z,22.72
2023-04-18T13:03:22.311Z,23.24
2023-04-18T13:08:25.697Z,25.05
2023-04-18T13:13:28.607Z,27.61
2023-04-18T13:18:31.525Z,27.01
2023-04-18T13:23:34.519Z,25.06
2023-04-18T13:28:37.526Z,23.38
2023-04-18T13:33:40.940Z,22.11
2023-04-18T13:38:43.782Z,21.16
2023-04-18T13:43:46.947Z,20.36
2023-04-18T13:48:50.158Z,19.71
2023-04-18T13:53:52.931Z,19.16
2023-04-18T13:58:56.288Z,18.58
2023-04-18T14:03:59.410Z,18.07
2023-04-18T14:09:02.392Z,17.62
2023-04-18T14:14:06.018Z,17.24
2023-04-18T14:19:09.025Z,17.00
2023-04-18T14:24:12.328Z,16.88
2023-04-18T14:29:15.848Z,16.83
2023-04-18T14:34:18.959Z,16.84
2023-04-18T14:39:22.323Z,17.01
2023-04-18T14:44:25.300Z,17.08
2023-04-18T14:49:28.291Z,16.84
2023-04-18T14:54:32.673Z,16.48
2023-04-18T14:59:35.732Z,16.13
2023-04-18T15:04:38.676Z,16.01
2023-04-18T15:09:41.640Z,15.83
2023-04-18T15:14:44.752Z,15.43
2023-04-18T15:19:47.673Z,15.06
2023-04-18T15:24:50.866Z,14.77
2023-04-18T15:29:53.847Z,14.60
2023-04-18T15:34:56.680Z,14.42
2023-04-18T15:40:00.517Z,14.19
2023-04-18T15:45:04.629Z,14.06
2023-04-18T15:50:09.036Z,14.00
2023-04-18T15:55:15.469Z,13.98
2023-04-18T16:00:19.866Z,14.00
2023-04-18T16:05:22.706Z,13.92
2023-04-18T16:10:25.761Z,13.84
2023-04-18T16:15:31.998Z,13.78
2023-04-18T16:20:34.995Z,13.68
2023-04-18T16:25:38.004Z,13.60
2023-04-18T16:30:43.976Z,13.53
2023-04-18T16:35:46.894Z,13.50
2023-04-18T16:40:49.796Z,13.48
2023-04-18T16:45:56.540Z,13.45
2023-04-18T16:50:59.496Z,13.43
2023-04-18T16:56:03.522Z,13.38
2023-04-18T17:01:08.306Z,13.32
2023-04-18T17:06:11.175Z,13.26
2023-04-18T17:11:14.082Z,13.19
2023-04-18T17:16:18.183Z,13.11
2023-04-18T17:21:21.224Z,13.00
2023-04-18T17:26:25.969Z,12.90
2023-04-18T17:31:29.847Z,12.78
2023-04-18T17:36:32.903Z,12.64
2023-04-18T17:41:38.998Z,12.49
2023-04-18T17:46:42.290Z,12.33
2023-04-18T17:51:45.907Z,12.17
2023-04-18T17:56:50.461Z,12.02
2023-04-18T18:01:53.465Z,11.88
2023-04-18T18:06:57.478Z,12.58
2023-04-18T18:12:00.392Z,14.52
2023-04-18T18:17:03.997Z,14.08
2023-04-18T18:22:07.335Z,13.02
2023-04-18T18:27:10.236Z,12.31
2023-04-18T18:32:13.039Z,11.80
2023-04-18T18:37:15.936Z,11.40
2023-04-18T18:42:18.841Z,11.09
2023-04-18T18:47:21.690Z,12.30
2023-04-18T18:52:25.281Z,13.54
2023-04-18T18:57:28.175Z,12.41
2023-04-18T19:02:31.564Z,11.54
2023-04-18T19:07:34.906Z,10.98
2023-04-18T19:12:38.489Z,10.58
2023-04-18T19:17:41.838Z,10.30
2023-04-18T19:22:44.736Z,10.07
2023-04-18T19:27:47.557Z,11.06
2023-04-18T19:32:50.741Z,13.25
2023-04-18T19:38:01.527Z,13.70
2023-04-18T19:43:04.552Z,12.12
2023-04-18T19:48:07.475Z,11.11
2023-04-18T19:53:11.286Z,10.41
2023-04-18T19:58:34.720Z,9.84
2023-04-18T20:03:38.506Z,9.36
2023-04-18T20:08:42.105Z,8.97
2023-04-18T20:13:45.427Z,8.66
2023-04-18T20:18:49.350Z,8.38
2023-04-18T20:23:52.365Z,8.14
2023-04-18T20:28:55.256Z,8.81
2023-04-18T20:33:58.273Z,10.70
2023-04-18T20:39:02.608Z,9.76
2023-04-18T20:44:06.270Z,8.77
2023-04-18T20:49:09.853Z,8.19
2023-04-18T20:54:13.528Z,7.77
2023-04-18T20:59:16.677Z,8.04
2023-04-18T21:04:20.968Z,10.41
2023-04-18T21:09:24.024Z,11.82
2023-04-18T21:14:26.927Z,10.99
2023-04-18T21:19:29.840Z,9.47
2023-04-18T21:24:32.733Z,8.52
2023-04-18T21:29:36.045Z,7.85
2023-04-18T21:34:38.955Z,7.41
2023-04-18T21:39:42.839Z,7.10
2023-04-18T21:44:45.775Z,7.79
2023-04-18T21:49:49.524Z,9.99
2023-04-18T21:54:53.232Z,9.27
2023-04-18T21:59:57.934Z,8.14
2023-04-18T22:05:00.878Z,7.41
2023-04-18T22:10:05.894Z,6.86
2023-04-18T22:15:08.945Z,7.32
2023-04-18T22:20:12.932Z,9.72
2023-04-18T22:25:15.789Z,11.19
2023-04-18T22:30:18.685Z,11.26
2023-04-18T22:35:22.097Z,9.52
2023-04-18T22:40:25.098Z,8.31
2023-04-18T22:45:28.003Z,7.47
2023-04-18T22:50:30.926Z,6.82
2023-04-18T22:55:34.424Z,6.33
2023-04-18T23:00:38.021Z,6.94
2023-04-18T23:05:41.475Z,9.33
2023-04-18T23:10:44.573Z,10.76
2023-04-18T23:15:47.512Z,10.76
2023-04-18T23:20:50.588Z,9.02
2023-04-18T23:25:53.494Z,7.83
2023-04-18T23:30:56.399Z,7.12
2023-04-18T23:36:00.063Z,6.62
2023-04-18T23:41:03.387Z,6.97
2023-04-18T23:46:06.344Z,9.34
2023-04-18T23:51:09.243Z,10.81
2023-04-18T23:56:12.252Z,10.87
